• Join FlightAware (Why Join?)
  • Login
  • US Flag 
07:04PM EDT


 

Airport Tracker/Info


-or-


 

Live Flight TrackerFlight Track Log ✈ N88FA ✈ 20-Jul-2013 ✈ KCVX - KTDZ

Flight Track Log - Related Links

Times and Time Zones

All times are in EDT time to prevent confusion due to time zone crossing. See the N88FA flight status page for this flight to view local times or setup timezone preferences in your user account.

Time Position Orientation Groundspeed Altitude Reporting Facility
EDT Latitude Longitude Course Direction KTS MPH feet Rate Location/Type
02:11PM 45.1839 -85.2244 150° Southeast 174 200 7,600  Level Minneapolis Center
02:12PM 45.1367 -85.1897 153° Southeast 180 207 9,300 1,560 Climbing Minneapolis Center
02:13PM 45.0769 -85.1461 153° Southeast 190 219 10,900 1,440 Climbing Minneapolis Center
02:14PM 45.0219 -85.1078 154° Southeast 208 239 12,300 1,200 Climbing Minneapolis Center
02:15PM 44.9667 -85.0736 156° South 215 247 13,500 1,080 Climbing Minneapolis Center
02:16PM 44.9097 -85.0483 163° South 214 246 14,600 1,020 Climbing Minneapolis Center
02:17PM 44.8508 -85.0311 168° South 214 246 15,700 900 Climbing Minneapolis Center
02:18PM 44.7931 -85.0211 173° South 211 243 16,500 840 Climbing Minneapolis Center
02:19PM 44.7319 -85.0039 169° South 218 251 17,500 900 Climbing Minneapolis Center
02:20PM 44.6600 -84.9775 165° South 221 254 18,400 780 Climbing Minneapolis Center
02:21PM 44.6006 -84.9450 159° South 227 261 19,200 720 Climbing Minneapolis Center
02:22PM 44.5411 -84.9117 158° South 229 264 19,900 540 Climbing Minneapolis Center
02:23PM 44.4828 -84.8761 156° South 228 262 20,400 420 Climbing Minneapolis Center
02:24PM 44.4225 -84.8411 157° South 233 268 20,800 180 Climbing Minneapolis Center
02:26PM 44.3601 -84.7914 150° Southeast  Level FlightAware Approximate
02:26PM 44.2858 -84.7561 150° Southeast 245 282 21,000  Level Minneapolis Center
02:27PM 44.2197 -84.7164 157° South 253 291 21,000  Level Minneapolis Center
02:28PM 44.1553 -84.6758 156° South 255 293 21,000  Level Minneapolis Center
02:29PM 44.0828 -84.6319 156° South 257 296 21,000  Level Minneapolis Center
02:31PM 44.0164 -84.5950 158° South 257 296 21,000  Level Minneapolis Center
02:32PM 43.9531 -84.5672 162° South 252 290 21,000  Level Minneapolis Center
02:33PM 43.8867 -84.5383 163° South 251 289 21,000  Level Minneapolis Center
02:34PM 43.8181 -84.5067 162° South 256 295 21,000  Level Minneapolis Center
02:35PM 43.7514 -84.4739 160° South 255 293 21,000  Level Minneapolis Center
02:36PM 43.6711 -84.4322 159° South 256 295 21,000  Level Minneapolis Center
02:37PM 43.6033 -84.3992 161° South 258 297 21,000  Level Minneapolis Center
02:38PM 43.5369 -84.3650 160° South 256 295 21,000  Level Minneapolis Center
02:39PM 43.4703 -84.3339 161° South 254 292 21,000  Level Minneapolis Center
02:40PM 43.4047 -84.3008 160° South 251 289 21,000  Level Minneapolis Center
02:41PM 43.3381 -84.2708 162° South 251 289 21,000  Level Minneapolis Center
02:42PM 43.2567 -84.2500 169° South 248 285 21,000  Level Minneapolis Center
02:43PM 43.1892 -84.2417 175° South 245 282 21,000  Level Minneapolis Center
02:44PM 43.1225 -84.2342 175° South 242 278 21,000  Level Minneapolis Center
02:45PM 43.0564 -84.2264 175° South 239 275 21,000  Level Minneapolis Center
02:46PM 42.9919 -84.2256 179° South 234 269 21,000  Level Minneapolis Center
02:47PM 42.9050 -84.2258 180° South 235 270 21,000 -120 Level Cleveland Center
02:48PM 42.8381 -84.2303 183° South 235 270 20,800 -480 Descending Cleveland Center
02:49PM 42.7756 -84.2322 181° South 246 283 20,100 -720 Descending Cleveland Center
02:50PM 42.7022 -84.2394 184° South 256 295 19,400 -660 Descending Cleveland Center
02:51PM 42.6289 -84.2492 186° South 261 300 18,800 -600 Descending Cleveland Center
02:52PM 42.5578 -84.2619 188° South 261 300 18,300 -600 Descending Cleveland Center
02:53PM 42.4864 -84.2747 188° South 261 300 17,600 -660 Descending Cleveland Center
02:54PM 42.4128 -84.2931 190° South 266 306 17,000 -300 Descending Cleveland Center
02:55PM 42.3419 -84.2972 182° South 266 306 17,000  Level Cleveland Center
02:56PM 42.2689 -84.2986 181° South 261 300 17,100 -240 Climbing Cleveland Center
02:57PM 42.1958 -84.2969 179° South 261 300 16,600 -840 Descending Cleveland Center
02:58PM 42.1167 -84.2981 181° South 261 300 15,500 -1,200 Descending Cleveland Center
02:59PM 42.0394 -84.2964 179° South 261 300 14,200 -1,620 Descending Cleveland Center
03:00PM 41.9644 -84.2947 179° South 274 315 12,300 -1,920 Descending Cleveland Center
03:01PM 41.8936 -84.2961 181° South 274 315 10,400 -1,800 Descending Cleveland Center
03:02PM 41.8206 -84.3003 182° South 269 310 8,700 -1,680 Descending Cleveland Center
03:03PM 41.7678 -84.2528 146° Southeast 261 300 7,100 -1,500 Descending Cleveland Center
03:04PM 41.7517 -84.1656 104° East 208 239 5,800 -1,380 Descending Cleveland Center
03:05PM 41.7419 -84.0786 98° East 208 239 4,400 -960 Descending Cleveland Center
03:06PM 41.7256 -83.9997 106° East 218 251 3,900 -420 Descending Cleveland Center
03:07PM 41.7072 -83.9183 107° East 223 257 3,600 -300 Descending Cleveland Center
03:09PM 41.6624 -83.8205 114° Southeast  Level FlightAware Approximate
03:16PM 41.5649 -83.4822 124° Southeast  Level Estimated
03:17PM 41.5649 -83.4822 124° Southeast  Level Estimated
03:18PM 41.5649 -83.4822 124° Southeast  Level Estimated
03:19PM 41.5649 -83.4822 124° Southeast  Level Estimated
03:20PM 41.5649 -83.4822 124° Southeast  Level Estimated